Levadhia, Greece
Current Conditions -  °F | °C
As of 8:50 AM on Saturday 25 Oct 2014 (Local Time) from LGTG Reporting Station
Broken Clouds Broken Clouds  
Wind Chill: 52°   Ceiling: 3500
Heat Index: 52°   Visibility: 6mi
Dew Point: 50°   Wind: 5mph
Humidity: 94%   Direction: 310°NW
Pressure: 29.8"   Gusts: NA
Location:  38.44°N, 22.87°E
Report Text: LGTG 250650Z 31004KT 9999 FEW010 BKN035 BKN080 11/10 Q1009 BLU
Loading
Personal Weather Stations






























Interactive Weather Map
Tropical Storm Tracking
New forecast layout! Learn more

10-Day Weather Forecast

Advertisements
Track Severe Weather on mobile